Time;durP1;ratioP1;P1;durP2;ratioP2;P2;SDS_P1;SDS_P2;PMS_P1;PMS_P2;Temp;Humidity;BMP_temperature;BMP_pressure;BME280_temperature;BME280_humidity;BME280_pressure;Samples;Min_cycle;Max_cycle;Signal;HPM_P1;HPM_P2
2021/12/02 00:02:07;;;;;;;0.40;0.30;;;11.20;74.60;11.20;94662.00;;;;5034992;28;20201;-86
2021/12/02 00:04:37;;;;;;;1.03;0.43;;;11.20;74.40;11.10;94658.00;;;;5036760;28;20240;-86
2021/12/02 00:07:07;;;;;;;0.30;0.30;;;11.10;74.30;11.10;94655.00;;;;5034781;28;20272;-85
2021/12/02 00:09:37;;;;;;;0.30;0.30;;;11.10;74.60;11.00;94650.00;;;;5037295;28;20217;-86
2021/12/02 00:12:14;;;;;;;0.30;0.30;;;11.10;74.70;11.00;94645.00;;;;5036863;28;20696;-86
2021/12/02 00:14:48;;;;;;;0.97;0.30;;;11.00;74.60;11.00;94649.00;;;;5036691;28;20197;-85
2021/12/02 00:17:24;;;;;;;0.83;0.40;;;11.00;74.50;11.00;94655.00;;;;5037308;28;20275;-86
2021/12/02 00:23:34;;;;;;;1.43;0.50;;;11.00;75.10;10.90;94653.00;;;;5025616;28;20581;-86
2021/12/02 00:26:16;;;;;;;0.53;0.30;;;10.90;74.50;10.90;94653.00;;;;5022713;28;20225;-86
2021/12/02 00:28:51;;;;;;;0.30;0.30;;;10.90;75.20;10.90;94649.00;;;;5022275;28;20281;-86
2021/12/02 00:31:28;;;;;;;0.73;0.40;;;10.90;75.00;10.90;94650.00;;;;5030664;28;20303;-86
2021/12/02 00:33:59;;;;;;;0.30;0.30;;;10.90;75.10;10.90;94648.00;;;;5028822;28;20197;-86
2021/12/02 00:36:43;;;;;;;0.30;0.30;;;10.80;75.00;10.90;94656.00;;;;5019152;28;20214;-86
2021/12/02 00:39:14;;;;;;;0.40;0.40;;;10.90;74.90;10.80;94651.00;;;;5020180;28;20226;-86
2021/12/02 00:41:43;;;;;;;0.70;0.40;;;10.80;75.10;10.80;94650.00;;;;5031584;28;20395;-86
2021/12/02 00:44:13;;;;;;;1.13;0.40;;;10.80;75.40;10.80;94655.00;;;;5031367;28;20255;-86
2021/12/02 00:46:43;;;;;;;4.33;0.70;;;10.80;75.20;10.80;94652.00;;;;5034458;28;20253;-86
2021/12/02 00:49:14;;;;;;;0.40;0.40;;;10.80;75.30;10.80;94661.00;;;;5036780;28;20197;-86
2021/12/02 00:51:45;;;;;;;0.30;0.30;;;10.80;75.60;10.80;94663.00;;;;5036215;28;20237;-86
2021/12/02 00:54:14;;;;;;;0.30;0.30;;;10.80;75.70;10.80;94666.00;;;;5027377;28;20188;-86
2021/12/02 00:56:45;;;;;;;0.40;0.40;;;10.70;75.70;10.80;94675.00;;;;5037145;28;20644;-86
2021/12/02 00:59:13;;;;;;;0.30;0.30;;;10.70;75.50;10.80;94671.00;;;;5029857;28;20292;-86
2021/12/02 01:01:45;;;;;;;3.37;0.50;;;10.70;75.50;10.80;94662.00;;;;5021841;28;20605;-86
2021/12/02 01:04:19;;;;;;;0.47;0.40;;;10.70;76.20;10.80;94673.00;;;;5035483;28;20201;-86
2021/12/02 01:06:46;;;;;;;0.30;0.30;;;10.70;75.50;10.80;94682.00;;;;5038112;28;20288;-86
2021/12/02 01:09:14;;;;;;;0.20;0.20;;;10.70;75.60;10.80;94684.00;;;;5065532;22;20281;-83
2021/12/02 01:11:42;;;;;;;0.30;0.30;;;10.70;75.70;10.80;94689.00;;;;5046986;28;20256;-83
2021/12/02 01:14:11;;;;;;;0.30;0.30;;;10.70;75.60;10.80;94684.00;;;;5053402;28;20197;-83
2021/12/02 01:16:40;;;;;;;0.30;0.30;;;10.70;75.80;10.80;94679.00;;;;5058557;28;20219;-82
2021/12/02 01:19:09;;;;;;;0.43;0.17;;;10.80;75.90;10.80;94675.00;;;;5060439;28;20193;-83
2021/12/02 01:21:40;;;;;;;0.43;0.30;;;10.70;75.70;10.80;94680.00;;;;5054286;28;20205;-82
2021/12/02 01:24:11;;;;;;;0.20;0.20;;;10.70;76.60;10.80;94692.00;;;;5034653;28;20280;-83
2021/12/02 01:26:40;;;;;;;0.30;0.30;;;10.70;75.60;10.80;94678.00;;;;5038818;28;20748;-83
2021/12/02 01:29:07;;;;;;;0.30;0.30;;;10.70;75.70;10.80;94688.00;;;;5053909;28;20694;-83
2021/12/02 01:31:37;;;;;;;0.43;0.40;;;10.70;75.60;10.90;94695.00;;;;5054445;28;20252;-83
2021/12/02 01:34:08;;;;;;;2.60;0.40;;;10.80;75.60;10.90;94691.00;;;;5046244;28;20204;-84
2021/12/02 01:36:38;;;;;;;0.30;0.30;;;10.80;75.70;10.90;94693.00;;;;5045437;28;20694;-83
2021/12/02 01:39:07;;;;;;;0.60;0.50;;;10.80;75.50;10.90;94691.00;;;;5052437;28;20228;-82
2021/12/02 01:41:43;;;;;;;0.20;0.20;;;10.80;75.70;10.90;94698.00;;;;5050521;28;20258;-84
2021/12/02 01:44:13;;;;;;;0.50;0.50;;;10.80;75.60;10.90;94694.00;;;;5049629;28;20196;-84
2021/12/02 01:46:42;;;;;;;1.23;0.40;;;10.90;75.80;11.00;94693.00;;;;5052276;28;20236;-83
2021/12/02 01:49:17;;;;;;;0.93;0.40;;;10.90;75.50;11.00;94690.00;;;;5051467;28;20192;-83
2021/12/02 01:51:47;;;;;;;1.50;0.30;;;10.90;75.70;11.00;94702.00;;;;5039387;28;20244;-84
2021/12/02 01:54:17;;;;;;;0.80;0.30;;;10.90;76.10;11.00;94702.00;;;;5047011;28;20202;-83
2021/12/02 01:56:48;;;;;;;0.30;0.30;;;10.90;76.10;11.00;94688.00;;;;5053932;28;20225;-84
2021/12/02 01:59:19;;;;;;;1.80;0.40;;;10.90;76.10;11.10;94698.00;;;;5046463;28;20593;-84
2021/12/02 02:01:51;;;;;;;0.30;0.30;;;11.00;76.10;11.10;94697.00;;;;5053944;28;20610;-83
2021/12/02 02:04:23;;;;;;;0.50;0.40;;;11.00;76.10;11.20;94694.00;;;;5042578;28;20200;-83
2021/12/02 02:06:58;;;;;;;0.60;0.40;;;11.00;75.90;11.20;94680.00;;;;5034532;28;20252;-84
2021/12/02 02:09:28;;;;;;;1.53;0.30;;;11.00;75.80;11.20;94695.00;;;;5052659;28;20243;-84
2021/12/02 02:11:56;;;;;;;0.93;0.37;;;11.10;76.00;11.30;94690.00;;;;5052971;28;20248;-84
2021/12/02 02:14:26;;;;;;;1.03;0.50;;;11.10;76.00;11.30;94691.00;;;;5050580;28;20201;-83
2021/12/02 02:16:54;;;;;;;0.30;0.23;;;11.10;75.80;11.30;94690.00;;;;5045729;28;20216;-83
2021/12/02 02:19:23;;;;;;;0.90;0.37;;;11.20;76.60;11.30;94681.00;;;;5050002;28;20188;-83
2021/12/02 02:21:52;;;;;;;0.63;0.33;;;11.20;75.60;11.30;94689.00;;;;5052449;28;20205;-83
2021/12/02 02:24:19;;;;;;;0.37;0.37;;;11.20;75.50;11.30;94693.00;;;;5043929;28;20243;-83
2021/12/02 02:26:46;;;;;;;0.43;0.30;;;11.20;75.30;11.30;94688.00;;;;5053050;28;20274;-83
2021/12/02 02:29:15;;;;;;;0.90;0.33;;;11.20;75.50;11.30;94692.00;;;;5051893;28;20637;-84
2021/12/02 02:31:44;;;;;;;1.30;0.30;;;11.20;75.40;11.30;94693.00;;;;5049121;28;20271;-84
2021/12/02 02:34:12;;;;;;;0.30;0.30;;;11.20;75.40;11.30;94717.00;;;;5049913;28;20200;-84
2021/12/02 02:36:50;;;;;;;2.10;0.30;;;11.20;75.60;11.20;94708.00;;;;5053005;28;20692;-84
2021/12/02 02:39:19;;;;;;;0.97;0.37;;;11.20;76.10;11.20;94708.00;;;;5053278;28;20542;-84
2021/12/02 02:41:53;;;;;;;0.20;0.20;;;11.20;76.20;11.10;94703.00;;;;5052839;28;20579;-83
2021/12/02 02:44:22;;;;;;;0.10;0.10;;;11.10;76.20;11.00;94702.00;;;;5053168;28;20219;-83
2021/12/02 02:46:49;;;;;;;0.20;0.20;;;11.00;76.30;10.90;94692.00;;;;5052983;28;20751;-83
2021/12/02 02:49:16;;;;;;;0.30;0.10;;;11.00;76.40;10.80;94691.00;;;;5044495;28;20575;-84
2021/12/02 02:51:44;;;;;;;0.17;0.10;;;10.90;77.40;10.80;94705.00;;;;5041507;28;20312;-83
2021/12/02 02:54:15;;;;;;;2.13;0.20;;;10.80;76.80;10.70;94711.00;;;;5045134;28;20229;-83
2021/12/02 02:56:50;;;;;;;0.20;0.20;;;10.80;76.90;10.70;94713.00;;;;5052468;28;20255;-83
2021/12/02 02:59:32;;;;;;;0.03;0.03;;;10.70;77.00;10.60;94708.00;;;;5052366;28;20201;-82
2021/12/02 03:02:14;;;;;;;0.57;0.10;;;10.60;77.10;10.60;94707.00;;;;5052292;28;20201;-83
2021/12/02 03:04:49;;;;;;;0.50;0.07;;;10.60;77.40;10.50;94726.00;;;;5052882;28;20291;-84
2021/12/02 03:07:23;;;;;;;0.07;0.00;;;10.50;77.50;10.40;94725.00;;;;5052441;28;20235;-83
2021/12/02 03:09:59;;;;;;;0.93;0.00;;;10.50;77.70;10.40;94730.00;;;;5052755;28;20288;-84
2021/12/02 03:12:32;;;;;;;0.23;0.10;;;10.40;77.70;10.40;94732.00;;;;5052765;28;20232;-84
2021/12/02 03:17:57;;;;;;;0.37;0.30;;;10.40;78.10;10.20;94713.00;;;;4990800;28;20711;-84
2021/12/02 03:20:24;;;;;;;0.73;0.00;;;10.30;78.20;10.20;94716.00;;;;5037939;28;20256;-84
2021/12/02 03:22:51;;;;;;;0.03;0.03;;;10.20;78.50;10.10;94709.00;;;;5051948;28;20203;-84
2021/12/02 03:25:18;;;;;;;0.00;0.00;;;10.20;78.70;10.10;94702.00;;;;5052255;28;20200;-83
2021/12/02 03:27:51;;;;;;;0.47;0.10;;;10.10;78.70;10.00;94705.00;;;;5051741;28;20399;-83
2021/12/02 03:30:19;;;;;;;0.33;0.20;;;10.10;78.80;10.00;94705.00;;;;5052223;28;20196;-84
2021/12/02 03:32:47;;;;;;;0.13;0.13;;;10.00;78.80;9.90;94695.00;;;;5051802;28;20310;-83
2021/12/02 03:35:14;;;;;;;0.20;0.10;;;9.90;78.70;9.90;94693.00;;;;5052120;28;20287;-83
2021/12/02 03:37:41;;;;;;;0.10;0.10;;;9.90;79.00;9.90;94699.00;;;;5052271;28;20483;-84
2021/12/02 03:40:11;;;;;;;0.10;0.10;;;9.80;79.20;9.80;94701.00;;;;5052506;28;20204;-84
2021/12/02 03:42:44;;;;;;;0.37;0.10;;;9.80;79.20;9.80;94700.00;;;;5038128;28;20208;-83
2021/12/02 03:45:16;;;;;;;0.10;0.10;;;9.80;79.40;9.80;94702.00;;;;5032832;28;20213;-84
2021/12/02 03:47:43;;;;;;;0.10;0.10;;;9.80;79.50;9.80;94698.00;;;;5047570;28;20228;-83
2021/12/02 03:50:17;;;;;;;0.53;0.20;;;9.70;79.60;9.70;94696.00;;;;5052636;28;20224;-83
2021/12/02 03:52:44;;;;;;;0.53;0.10;;;9.70;79.70;9.70;94699.00;;;;5051962;28;20307;-84
2021/12/02 03:55:11;;;;;;;0.60;0.13;;;9.60;79.70;9.70;94706.00;;;;5051957;28;20232;-83
2021/12/02 03:57:38;;;;;;;1.53;0.20;;;9.60;79.80;9.70;94705.00;;;;5052434;28;20666;-83
2021/12/02 04:00:08;;;;;;;0.43;0.20;;;9.60;80.00;9.70;94697.00;;;;5052648;28;20677;-83
2021/12/02 04:02:36;;;;;;;0.00;0.00;;;9.60;80.00;9.70;94712.00;;;;5052109;28;20619;-83
2021/12/02 04:05:04;;;;;;;0.93;0.17;;;9.60;80.00;9.70;94713.00;;;;5051796;28;20231;-83
2021/12/02 04:07:32;;;;;;;0.33;0.10;;;9.60;80.20;9.70;94710.00;;;;5053324;28;20243;-84
2021/12/02 04:10:01;;;;;;;0.00;0.00;;;9.50;80.40;9.70;94707.00;;;;5055896;28;20219;-83
2021/12/02 04:12:33;;;;;;;0.57;0.10;;;9.50;80.60;9.70;94709.00;;;;5056512;28;20315;-84
2021/12/02 04:15:05;;;;;;;0.30;0.30;;;9.50;80.50;9.70;94714.00;;;;5056090;28;20201;-84
2021/12/02 04:17:42;;;;;;;0.20;0.20;;;9.60;80.50;9.70;94707.00;;;;5056358;28;20208;-84
2021/12/02 04:20:16;;;;;;;0.60;0.20;;;9.60;80.50;9.70;94708.00;;;;5056161;28;20196;-83
2021/12/02 04:22:44;;;;;;;0.20;0.20;;;9.60;80.40;9.70;94715.00;;;;5055944;28;20185;-82
2021/12/02 04:25:13;;;;;;;0.20;0.20;;;9.60;80.40;9.70;94719.00;;;;5055619;28;20224;-83
2021/12/02 04:27:41;;;;;;;0.90;0.20;;;9.60;80.30;9.70;94725.00;;;;5055643;28;20248;-82
2021/12/02 04:30:12;;;;;;;0.00;0.00;;;9.60;80.90;9.70;94724.00;;;;5052954;28;20235;-84
2021/12/02 04:32:39;;;;;;;1.17;0.30;;;9.60;80.20;9.70;94720.00;;;;5052540;28;20236;-83
2021/12/02 04:35:09;;;;;;;0.40;0.20;;;9.60;80.30;9.70;94719.00;;;;5053127;28;20224;-83
2021/12/02 04:37:37;;;;;;;1.40;0.27;;;9.60;80.10;9.70;94723.00;;;;5054984;28;20258;-83
2021/12/02 04:40:06;;;;;;;2.47;0.30;;;9.60;80.10;9.70;94712.00;;;;5054049;28;20200;-83
2021/12/02 04:42:40;;;;;;;1.87;0.43;;;9.60;79.90;9.70;94714.00;;;;5055682;28;20275;-83
2021/12/02 04:45:15;;;;;;;0.20;0.10;;;9.60;80.00;9.70;94710.00;;;;5053713;28;20638;-83
2021/12/02 04:47:42;;;;;;;2.53;0.57;;;9.60;80.00;9.70;94714.00;;;;5055185;28;20219;-83
2021/12/02 04:53:02;;;;;;;1.33;0.40;;;9.60;79.80;9.70;94720.00;;;;5045124;28;20431;-83
2021/12/02 04:55:35;;;;;;;0.80;0.20;;;9.60;79.50;9.60;94711.00;;;;5055247;28;20566;-84
2021/12/02 04:58:11;;;;;;;0.83;0.17;;;9.60;79.40;9.60;94718.00;;;;5055034;28;20264;-83
2021/12/02 05:00:41;;;;;;;0.30;0.17;;;9.50;79.40;9.50;94720.00;;;;5051948;28;20193;-83
2021/12/02 05:03:08;;;;;;;0.43;0.20;;;9.50;79.40;9.40;94720.00;;;;5048087;28;20543;-83
2021/12/02 05:05:42;;;;;;;0.63;0.20;;;9.50;79.10;9.40;94723.00;;;;5034835;28;20644;-84
2021/12/02 05:08:21;;;;;;;2.73;0.40;;;9.40;79.10;9.30;94715.00;;;;5040225;28;20205;-87
2021/12/02 05:10:49;;;;;;;2.63;0.80;;;9.40;79.20;9.30;94718.00;;;;5049540;28;20550;-87
2021/12/02 05:13:21;;;;;;;0.40;0.30;;;9.30;79.10;9.30;94717.00;;;;5046928;28;20595;-87
2021/12/02 05:15:48;;;;;;;0.63;0.40;;;9.30;79.30;9.20;94705.00;;;;5053862;28;20213;-87
2021/12/02 05:18:15;;;;;;;2.87;0.40;;;9.30;79.40;9.20;94717.00;;;;5053621;28;20193;-87
2021/12/02 05:20:50;;;;;;;0.57;0.30;;;9.40;79.70;9.20;94720.00;;;;5054833;28;20205;-86
2021/12/02 05:23:26;;;;;;;0.47;0.20;;;9.20;79.70;9.20;94715.00;;;;5053772;28;20294;-86
2021/12/02 05:25:53;;;;;;;0.70;0.20;;;9.30;80.00;9.20;94731.00;;;;5054694;28;20220;-86
2021/12/02 05:28:20;;;;;;;0.97;0.40;;;9.20;80.30;9.20;94729.00;;;;5054539;28;20451;-86
2021/12/02 05:30:48;;;;;;;0.77;0.70;;;9.20;80.30;9.20;94721.00;;;;5054009;28;20239;-85
2021/12/02 05:33:19;;;;;;;0.40;0.30;;;9.20;81.00;9.20;94718.00;;;;5054035;28;20296;-86
2021/12/02 05:35:47;;;;;;;0.90;0.50;;;9.20;80.30;9.20;94732.00;;;;5053442;28;20216;-86
2021/12/02 05:38:17;;;;;;;0.47;0.40;;;9.20;80.20;9.20;94721.00;;;;5054568;28;20197;-86
2021/12/02 05:40:53;;;;;;;0.67;0.37;;;9.10;80.20;9.10;94713.00;;;;5053594;28;20288;-86
2021/12/02 05:43:22;;;;;;;0.27;0.27;;;9.10;80.40;9.10;94714.00;;;;5053956;28;20284;-85
2021/12/02 05:45:50;;;;;;;0.80;0.30;;;9.10;80.60;9.10;94718.00;;;;5054105;28;20227;-86
2021/12/02 05:48:17;;;;;;;0.83;0.40;;;9.10;80.60;9.20;94724.00;;;;5054242;28;20644;-86
2021/12/02 05:50:45;;;;;;;1.67;0.40;;;9.10;80.70;9.20;94729.00;;;;5053933;28;20192;-86
2021/12/02 05:53:12;;;;;;;0.53;0.30;;;9.10;80.80;9.20;94732.00;;;;5053854;28;20232;-87
2021/12/02 05:55:45;;;;;;;0.87;0.37;;;9.10;80.90;9.20;94722.00;;;;5033734;28;20280;-86
2021/12/02 05:58:15;;;;;;;0.50;0.40;;;9.10;80.90;9.20;94731.00;;;;5033818;28;20649;-85
2021/12/02 06:00:43;;;;;;;0.73;0.23;;;9.20;81.10;9.20;94737.00;;;;5033614;28;20228;-85
2021/12/02 06:03:10;;;;;;;0.40;0.30;;;9.20;81.10;9.20;94723.00;;;;5042162;28;20204;-85
2021/12/02 06:05:47;;;;;;;0.93;0.37;;;9.20;80.80;9.20;94726.00;;;;5053525;28;20201;-86
2021/12/02 06:08:25;;;;;;;1.10;0.50;;;9.20;80.90;9.20;94733.00;;;;5053670;28;20200;-88
2021/12/02 06:11:01;;;;;;;0.43;0.20;;;9.20;80.90;9.20;94717.00;;;;5054186;28;20266;-87
2021/12/02 06:13:29;;;;;;;0.30;0.27;;;9.20;80.90;9.20;94727.00;;;;5053385;28;20219;-86
2021/12/02 06:16:05;;;;;;;2.70;0.60;;;9.20;80.80;9.20;94730.00;;;;5053190;28;20249;-86
2021/12/02 06:18:37;;;;;;;0.87;0.20;;;9.20;80.70;9.20;94729.00;;;;5053905;28;20191;-86
2021/12/02 06:21:16;;;;;;;0.97;0.10;;;9.20;80.60;9.20;94733.00;;;;5053660;28;20232;-86
2021/12/02 06:23:43;;;;;;;0.50;0.23;;;9.20;80.70;9.10;94737.00;;;;5053383;28;20646;-86
2021/12/02 06:26:11;;;;;;;0.77;0.40;;;9.20;80.70;9.10;94735.00;;;;5053229;28;20759;-86
2021/12/02 06:28:42;;;;;;;0.27;0.20;;;9.10;80.70;9.10;94739.00;;;;5053090;28;20219;-86
2021/12/02 06:31:10;;;;;;;1.10;0.50;;;9.10;80.90;9.10;94744.00;;;;5051947;28;20228;-90
2021/12/02 06:33:37;;;;;;;0.73;0.30;;;9.10;80.80;9.10;94740.00;;;;5053457;28;20267;-89
2021/12/02 06:36:05;;;;;;;0.60;0.23;;;9.10;80.80;9.10;94740.00;;;;5053199;28;20650;-91
2021/12/02 06:38:32;;;;;;;0.50;0.20;;;9.10;80.80;9.10;94741.00;;;;5052264;28;20197;-89
2021/12/02 06:40:59;;;;;;;0.40;0.37;;;9.00;80.90;9.20;94740.00;;;;5053528;28;20200;-90
2021/12/02 06:43:26;;;;;;;1.20;0.40;;;9.10;81.40;9.20;94742.00;;;;5052497;28;20236;-91
2021/12/02 06:45:57;;;;;;;3.37;0.40;;;9.10;80.80;9.20;94737.00;;;;5052791;28;20235;-90
2021/12/02 06:48:24;;;;;;;1.33;0.30;;;9.10;80.80;9.20;94743.00;;;;5052106;28;20279;-90
2021/12/02 06:50:54;;;;;;;2.40;0.40;;;9.10;80.80;9.20;94738.00;;;;5052897;28;20226;-90
2021/12/02 06:53:21;;;;;;;1.67;0.60;;;9.10;80.60;9.20;94741.00;;;;5052817;28;20224;-89
2021/12/02 06:55:49;;;;;;;0.50;0.50;;;9.60;80.90;9.20;94753.00;;;;5052801;28;20308;-90
2021/12/02 06:58:18;;;;;;;1.17;0.43;;;9.00;80.80;9.10;94754.00;;;;5052585;28;20240;-90
2021/12/02 07:00:46;;;;;;;0.77;0.30;;;9.80;81.60;9.10;94747.00;;;;5052895;28;20200;-89
2021/12/02 07:03:14;;;;;;;2.20;0.40;;;9.00;80.70;9.10;94742.00;;;;5052161;28;20232;-90
2021/12/02 07:05:41;;;;;;;1.50;0.50;;;9.00;80.70;9.10;94752.00;;;;5052184;28;20199;-89
2021/12/02 07:08:08;;;;;;;0.80;0.40;;;9.00;80.70;9.20;94752.00;;;;5052536;28;20315;-90
2021/12/02 07:10:36;;;;;;;1.40;0.40;;;9.00;80.80;9.20;94749.00;;;;5068092;22;20721;-83
2021/12/02 07:13:03;;;;;;;1.97;0.60;;;9.00;80.80;9.20;94744.00;;;;5053786;28;20212;-87
2021/12/02 07:15:31;;;;;;;0.70;0.50;;;9.00;80.70;9.10;94738.00;;;;5053802;28;20228;-86
2021/12/02 07:18:00;;;;;;;0.70;0.30;;;8.70;80.30;9.10;94736.00;;;;5053578;28;20547;-86
2021/12/02 07:20:33;;;;;;;0.37;0.27;;;9.00;80.40;9.10;94742.00;;;;5053344;28;20217;-86
2021/12/02 07:23:02;;;;;;;0.43;0.40;;;9.00;80.20;9.00;94733.00;;;;5053817;28;20251;-85
2021/12/02 07:25:29;;;;;;;2.67;0.43;;;9.00;80.00;9.00;94740.00;;;;5053772;28;20192;-86
2021/12/02 07:27:57;;;;;;;0.40;0.33;;;9.00;79.90;9.00;94748.00;;;;5053439;28;20784;-85
2021/12/02 07:30:24;;;;;;;0.50;0.40;;;10.00;80.60;8.90;94739.00;;;;5053389;28;20714;-85
2021/12/02 07:32:57;;;;;;;0.63;0.60;;;10.00;80.70;8.90;94739.00;;;;5053389;28;20262;-85
2021/12/02 07:35:25;;;;;;;1.13;0.50;;;8.80;80.60;8.90;94752.00;;;;5053557;28;20253;-86
2021/12/02 07:37:57;;;;;;;1.47;0.70;;;8.80;80.00;8.80;94751.00;;;;5053020;28;20254;-86
2021/12/02 07:40:27;;;;;;;1.70;0.50;;;8.80;80.00;8.80;94742.00;;;;5053146;28;20246;-86
2021/12/02 07:42:58;;;;;;;1.03;0.90;;;8.70;80.00;8.90;94745.00;;;;5052248;28;20216;-85
2021/12/02 07:45:31;;;;;;;4.80;1.33;;;8.70;80.20;8.90;94748.00;;;;5053898;28;20254;-86
2021/12/02 07:48:01;;;;;;;1.10;1.00;;;8.80;80.50;8.90;94748.00;;;;5052754;28;20276;-83
2021/12/02 07:50:28;;;;;;;1.17;0.70;;;8.70;80.50;8.90;94750.00;;;;5041964;28;20220;-85
2021/12/02 07:53:11;;;;;;;0.63;0.63;;;8.80;80.80;8.90;94745.00;;;;5036473;28;20357;-85
2021/12/02 07:55:42;;;;;;;1.13;0.63;;;8.70;80.80;9.00;94741.00;;;;5053711;28;20583;-85
2021/12/02 07:58:11;;;;;;;2.50;0.70;;;8.80;81.10;9.00;94750.00;;;;5053781;28;20257;-86
2021/12/02 08:00:39;;;;;;;0.87;0.60;;;8.80;81.00;9.00;94741.00;;;;5050202;28;20395;-85
2021/12/02 08:03:11;;;;;;;0.97;0.80;;;8.30;80.60;9.00;94750.00;;;;5033746;28;20236;-86
2021/12/02 08:05:38;;;;;;;1.87;0.80;;;8.80;80.90;9.00;94751.00;;;;5034012;28;20259;-86
2021/12/02 08:08:08;;;;;;;0.90;0.90;;;8.80;80.80;9.00;94758.00;;;;5033593;28;20284;-86
2021/12/02 08:10:36;;;;;;;0.80;0.70;;;8.80;80.80;9.00;94764.00;;;;5036303;28;20228;-85
2021/12/02 08:13:04;;;;;;;3.40;1.17;;;8.80;80.90;9.00;94758.00;;;;5053036;28;20710;-85
2021/12/02 08:15:35;;;;;;;3.17;0.70;;;8.80;81.00;9.00;94764.00;;;;5053280;28;20283;-86
2021/12/02 08:18:02;;;;;;;4.10;0.90;;;8.80;80.90;9.00;94768.00;;;;5053462;28;20177;-85
2021/12/02 08:20:30;;;;;;;0.60;0.60;;;8.80;81.10;9.00;94770.00;;;;5053771;28;20258;-86
2021/12/02 08:22:59;;;;;;;1.50;0.80;;;8.80;81.40;9.10;94774.00;;;;5052948;28;20200;-86
2021/12/02 08:25:30;;;;;;;0.77;0.67;;;8.80;81.60;9.10;94775.00;;;;5052881;28;20592;-86
2021/12/02 08:28:00;;;;;;;0.60;0.60;;;8.90;81.70;9.20;94773.00;;;;5052711;28;20208;-86
2021/12/02 08:30:28;;;;;;;0.70;0.70;;;8.90;81.60;9.20;94778.00;;;;5052835;28;20721;-86
2021/12/02 08:33:01;;;;;;;3.63;0.90;;;8.90;81.80;9.20;94783.00;;;;5052457;28;20285;-85
2021/12/02 08:35:31;;;;;;;0.90;0.70;;;9.00;81.80;9.30;94790.00;;;;5052606;28;20666;-85
2021/12/02 08:38:01;;;;;;;0.70;0.70;;;9.00;81.70;9.30;94784.00;;;;5052787;28;20250;-86
2021/12/02 08:40:32;;;;;;;2.00;0.70;;;9.00;81.80;9.30;94787.00;;;;5050291;28;20244;-86
2021/12/02 08:43:01;;;;;;;0.77;0.53;;;9.10;81.90;9.40;94771.00;;;;5050861;28;20231;-86
2021/12/02 08:45:29;;;;;;;1.40;0.50;;;9.10;81.90;9.40;94775.00;;;;5052853;28;20205;-87
2021/12/02 08:47:58;;;;;;;1.23;0.77;;;9.20;81.90;9.50;94779.00;;;;5052656;28;20199;-86
2021/12/02 08:50:25;;;;;;;0.90;0.70;;;9.20;81.80;9.50;94780.00;;;;5052136;28;20591;-86
2021/12/02 08:52:54;;;;;;;2.10;0.60;;;9.30;82.10;9.60;94784.00;;;;5052898;28;20247;-86
2021/12/02 08:55:24;;;;;;;1.20;0.63;;;9.40;82.00;9.70;94778.00;;;;5056187;28;20204;-86
2021/12/02 08:57:54;;;;;;;1.03;0.97;;;9.40;82.00;9.70;94782.00;;;;5056520;28;20193;-86
2021/12/02 09:00:32;;;;;;;0.77;0.67;;;9.50;82.00;9.80;94785.00;;;;5056281;28;20593;-85
2021/12/02 09:03:02;;;;;;;2.30;0.80;;;9.60;82.50;9.90;94786.00;;;;5054718;28;20242;-86
2021/12/02 09:05:30;;;;;;;1.03;0.60;;;9.60;82.40;10.10;94787.00;;;;5075805;28;20204;-86
2021/12/02 09:07:57;;;;;;;0.50;0.50;;;9.80;82.50;10.20;94784.00;;;;5075918;28;20192;-86
2021/12/02 09:10:26;;;;;;;1.07;0.60;;;9.80;82.10;10.30;94784.00;;;;5066681;28;20311;-85
2021/12/02 09:12:55;;;;;;;0.70;0.53;;;9.90;82.00;10.40;94781.00;;;;5058811;28;20258;-86
2021/12/02 09:15:23;;;;;;;1.03;0.53;;;10.00;81.80;10.50;94793.00;;;;5060692;28;20553;-86
2021/12/02 09:17:51;;;;;;;3.73;1.00;;;10.20;82.00;10.60;94794.00;;;;5056279;28;20209;-86
2021/12/02 09:20:19;;;;;;;1.20;0.70;;;10.30;81.90;10.70;94793.00;;;;5056179;28;20316;-85
2021/12/02 09:22:48;;;;;;;1.43;0.90;;;10.40;81.60;10.90;94799.00;;;;5056252;28;20208;-87
2021/12/02 09:25:16;;;;;;;0.70;0.60;;;10.50;81.10;10.90;94795.00;;;;5055571;28;20746;-87
2021/12/02 09:27:44;;;;;;;2.50;0.70;;;10.60;80.60;11.00;94794.00;;;;5055870;28;20208;-87
2021/12/02 09:30:16;;;;;;;0.63;0.50;;;10.60;80.30;11.00;94791.00;;;;5055609;28;20231;-86
2021/12/02 09:32:43;;;;;;;1.40;0.73;;;10.70;80.50;11.00;94798.00;;;;5055681;28;20228;-86
2021/12/02 09:35:13;;;;;;;1.30;0.50;;;10.70;79.50;11.10;94791.00;;;;5055111;28;20211;-86
2021/12/02 09:37:40;;;;;;;0.60;0.60;;;10.70;79.10;11.10;94780.00;;;;5055502;28;20259;-86
2021/12/02 09:40:11;;;;;;;1.27;0.50;;;10.80;79.40;11.10;94799.00;;;;5055609;28;20759;-87
2021/12/02 09:42:38;;;;;;;1.23;0.80;;;10.80;79.10;11.10;94791.00;;;;5041326;28;20239;-86
2021/12/02 09:45:07;;;;;;;0.80;0.73;;;10.80;79.00;11.10;94788.00;;;;5054917;28;20280;-86
2021/12/02 09:47:44;;;;;;;3.30;0.60;;;10.80;78.50;11.10;94788.00;;;;5055616;28;20556;-87
2021/12/02 09:50:17;;;;;;;0.93;0.53;;;10.80;78.30;11.10;94773.00;;;;5055124;28;20223;-86
2021/12/02 09:52:46;;;;;;;0.70;0.70;;;10.80;78.10;11.10;94772.00;;;;5054626;28;20223;-87
2021/12/02 09:55:21;;;;;;;0.80;0.60;;;10.90;77.80;11.10;94766.00;;;;5054873;28;20266;-87
2021/12/02 09:57:52;;;;;;;1.03;0.70;;;10.90;77.70;11.10;94751.00;;;;5055027;28;20216;-87
2021/12/02 10:00:29;;;;;;;0.60;0.60;;;10.90;78.20;11.10;94760.00;;;;5055048;28;20224;-84
2021/12/02 10:03:02;;;;;;;1.07;0.40;;;10.80;77.70;11.10;94768.00;;;;5054829;28;20203;-87
2021/12/02 10:05:37;;;;;;;1.07;0.43;;;10.90;77.50;11.10;94759.00;;;;5054165;28;20207;-85
2021/12/02 10:08:08;;;;;;;1.00;0.67;;;10.90;77.40;11.10;94742.00;;;;5039498;28;20191;-86
2021/12/02 10:10:39;;;;;;;0.90;0.60;;;10.90;77.20;11.10;94755.00;;;;5054691;28;20224;-86
2021/12/02 10:13:24;;;;;;;3.50;1.00;;;10.90;77.30;11.10;94752.00;;;;5045151;28;20229;-86
2021/12/02 10:16:10;;;;;;;1.40;0.50;;;10.90;76.70;11.10;94754.00;;;;5034727;28;20186;-86
2021/12/02 10:18:52;;;;;;;0.80;0.60;;;10.90;76.60;11.10;94744.00;;;;5034638;28;20197;-86
2021/12/02 10:21:25;;;;;;;5.73;1.00;;;10.90;77.20;11.10;94744.00;;;;5034841;28;20201;-87
2021/12/02 10:23:53;;;;;;;1.13;0.50;;;10.90;77.20;11.10;94743.00;;;;5035054;28;20192;-85
2021/12/02 10:26:22;;;;;;;0.70;0.40;;;10.90;77.30;11.20;94740.00;;;;5035481;28;20193;-85
2021/12/02 10:28:52;;;;;;;2.13;0.60;;;10.90;77.50;11.20;94745.00;;;;5045043;28;20212;-86
2021/12/02 10:31:26;;;;;;;0.40;0.40;;;10.90;77.50;11.30;94728.00;;;;5055172;28;20201;-86
2021/12/02 10:33:58;;;;;;;0.50;0.40;;;11.00;77.30;11.30;94742.00;;;;5054280;28;20227;-84
2021/12/02 10:36:33;;;;;;;1.80;0.50;;;11.10;77.10;11.40;94728.00;;;;5054888;28;20185;-86
2021/12/02 10:39:10;;;;;;;0.63;0.63;;;11.10;76.90;11.40;94738.00;;;;5055166;28;20220;-87
2021/12/02 10:41:41;;;;;;;0.97;0.43;;;11.20;77.20;11.50;94738.00;;;;5055067;28;20279;-86
2021/12/02 10:44:18;;;;;;;1.60;0.90;;;11.20;77.00;11.50;94727.00;;;;5053009;28;20213;-85
2021/12/02 10:47:03;;;;;;;1.13;0.73;;;11.30;77.00;11.60;94737.00;;;;5050893;28;20204;-86
2021/12/02 10:49:34;;;;;;;0.73;0.70;;;11.30;76.10;11.60;94741.00;;;;5054187;28;20220;-86
2021/12/02 10:52:06;;;;;;;0.70;0.70;;;11.30;76.50;11.60;94737.00;;;;5053955;28;20280;-86
2021/12/02 10:54:36;;;;;;;0.90;0.53;;;11.30;76.40;11.60;94726.00;;;;5054226;28;20243;-86
2021/12/02 10:57:10;;;;;;;2.10;0.77;;;11.40;76.70;11.70;94732.00;;;;5054199;28;20279;-86
2021/12/02 10:59:42;;;;;;;1.47;0.70;;;11.50;76.10;11.70;94735.00;;;;5054618;28;20226;-87
2021/12/02 11:02:19;;;;;;;1.10;0.70;;;11.50;76.40;11.70;94735.00;;;;5054453;28;20184;-87
2021/12/02 11:04:51;;;;;;;0.80;0.50;;;11.50;76.10;11.80;94741.00;;;;5054866;28;20188;-86
2021/12/02 11:07:28;;;;;;;1.00;0.70;;;11.50;75.70;11.80;94730.00;;;;5054861;28;20284;-87
2021/12/02 11:09:59;;;;;;;1.07;0.73;;;11.50;75.50;11.80;94731.00;;;;5057440;28;20235;-86
2021/12/02 11:12:29;;;;;;;0.97;0.57;;;11.60;75.50;11.80;94731.00;;;;5057000;28;20231;-85
2021/12/02 11:15:13;;;;;;;1.10;0.50;;;11.60;75.20;11.80;94721.00;;;;5056991;28;20231;-87
2021/12/02 11:17:46;;;;;;;0.67;0.43;;;11.60;75.30;11.80;94712.00;;;;5054909;28;20207;-87
2021/12/02 11:20:21;;;;;;;1.30;0.60;;;11.70;75.00;11.80;94707.00;;;;5054204;28;20246;-85
2021/12/02 11:22:52;;;;;;;2.47;0.60;;;11.60;75.40;11.80;94708.00;;;;5054192;28;20291;-86
2021/12/02 11:25:20;;;;;;;0.50;0.30;;;11.60;75.20;11.90;94707.00;;;;5053942;28;20208;-87
2021/12/02 11:27:49;;;;;;;1.90;0.60;;;11.70;75.50;11.90;94705.00;;;;5053729;28;20671;-86